Latest Weather Observations for Mount Buller

IDV60801

Issued at 11:31 am EDT Tuesday 23 December 2014 (issued every 30 minutes, with the page automatically refreshed every 10 minutes)

About weather observations | Map of weather stations | Latest weather observations for VIC | Other Formats
Station Details ID: 083024 Name: MOUNT BULLER Lat: -37.15 Lon: 146.44 Height: 1707.0 m
Data from the previous 72 hours. | See also: Recent months at Mount Buller
Date/Time
EDT
Temp
°C
App
Temp
°C
Dew
Point
Rel
Hum
%
Delta-T
°C
Wind Press
QNH
hPa
Press
MSL
hPa
Rain
since 9 am
mm
Dir
 
Spd
km/h
Gust
km/h
Spd
kts
Gust
kts
23/11:30am 11.0 2.7 9.9 93 0.6 NNW 44 59 24 32 - - 0.2
23/11:00am 10.7 2.3 8.8 88 1.0 NNW 43 57 23 31 - - 0.2
23/10:30am 10.3 1.8 8.7 90 0.9 NNW 43 61 23 33 - - 0.2
23/10:12am 10.2 2.9 8.8 91 0.8 NNW 37 56 20 30 - - 0.2
23/10:00am 10.2 2.1 8.6 90 0.9 NNW 41 56 22 30 - - 0.2
23/09:40am 10.0 2.1 9.2 95 0.4 NNW 41 59 22 32 - - 0.2
23/09:30am 9.9 2.0 9.3 96 0.3 NNW 41 57 22 31 - - 0.2
23/09:18am 9.9 2.9 9.8 99 0.1 NNW 37 56 20 30 - - 0.2
23/09:00am 10.0 3.0 9.9 99 0.1 NNW 37 52 20 28 - - 3.8
23/08:30am 9.4 3.2 9.3 99 0.1 NNW 32 43 17 23 - - 3.8
23/08:00am 9.1 2.6 9.0 99 0.1 NNW 33 50 18 27 - - 3.8
23/07:30am 9.1 1.1 9.0 99 0.1 NNW 41 61 22 33 - - 3.4
23/07:00am 9.4 1.1 9.3 99 0.1 NNW 43 65 23 35 - - 3.0
23/06:30am 9.4 -0.2 9.3 99 0.1 NNW 50 74 27 40 - - 2.8
23/06:23am 9.4 0.9 9.3 99 0.1 NNW 44 74 24 40 - - 2.8
23/06:00am 9.6 3.2 9.5 99 0.1 NNW 33 54 18 29 - - 2.8
23/05:34am 10.1 2.0 9.9 99 0.1 NNW 43 63 23 34 - - 2.6
23/05:30am 10.2 2.1 10.0 99 0.1 N 43 57 23 31 - - 2.6
23/05:08am 10.2 2.1 9.9 98 0.2 N 43 63 23 34 - - 1.8
23/05:00am 10.3 2.2 10.0 98 0.2 N 43 57 23 31 - - 1.4
23/04:30am 11.0 1.8 9.6 91 0.8 N 48 74 26 40 - - 0.8
23/04:00am 11.4 0.6 9.1 86 1.3 N 56 82 30 44 - - 0.8
23/03:30am 12.1 1.6 8.8 80 1.8 N 54 76 29 41 - - 0.8
23/03:00am 11.9 2.9 8.7 81 1.7 NNE 46 78 25 42 - - 0.8
23/02:30am 12.0 1.1 8.7 80 1.8 NNE 56 74 30 40 - - 0.8
23/02:00am 12.1 0.9 8.4 78 2.0 NNE 57 85 31 46 - - 0.8
23/01:55am 12.2 1.5 8.1 76 2.2 NNE 54 85 29 46 - - 0.8
23/01:30am 12.2 1.9 8.3 77 2.1 NNE 52 67 28 36 - - 0.8
23/01:25am 12.3 2.8 8.2 76 2.2 NNE 48 67 26 36 - - 0.8
23/01:00am 12.2 4.0 8.3 77 2.1 NNE 41 54 22 29 - - 0.8
23/12:37am 12.2 5.5 8.3 77 2.1 N 33 52 18 28 - - 0.8
23/12:30am 12.1 6.4 8.4 78 2.0 N 28 41 15 22 - - 0.8
23/12:00am 11.7 6.1 8.9 83 1.5 NNE 28 39 15 21 - - 0.8
 
Date/Time
EDT
Temp
°C
App
Temp
°C
Dew
Point
Rel
Hum
%
Delta-T
°C
Wind Press
QNH
hPa
Press
MSL
hPa
Rain
since 9 am
mm
Dir
 
Spd
km/h
Gust
km/h
Spd
kts
Gust
kts
22/11:30pm 12.3 5.7 8.6 78 2.0 NNE 33 44 18 24 - - 0.8
22/11:00pm 12.2 6.8 8.1 76 2.2 NNE 26 35 14 19 - - 0.8
22/10:30pm 11.8 7.9 8.5 80 1.8 NNE 19 24 10 13 - - 0.8
22/10:00pm 11.3 7.5 9.2 87 1.2 NNE 19 28 10 15 - - 0.8
22/09:30pm 11.9 7.4 8.7 81 1.7 N 22 32 12 17 - - 0.6
22/09:00pm 13.6 10.1 7.4 66 3.3 NE 15 19 8 10 - - 0.0
22/08:30pm 13.1 9.2 6.9 66 3.3 NE 17 26 9 14 - - 0.0
22/08:00pm 13.7 8.4 6.6 62 3.8 NNE 24 35 13 19 - - 0.0
22/07:30pm 12.3 7.8 8.4 77 2.1 NNE 22 37 12 20 - - 0.0
22/07:00pm 13.7 7.1 8.5 71 2.9 NE 33 54 18 29 - - 0.0
22/06:30pm 15.3 8.1 7.6 60 4.2 NNE 35 56 19 30 - - 0.0
22/06:26pm 15.3 9.4 7.6 60 4.2 NNE 28 48 15 26 - - 0.0
22/06:00pm 16.0 11.4 8.2 60 4.3 NNE 22 30 12 16 - - 0.0
22/05:30pm 16.7 12.0 7.6 55 5.0 NNE 22 33 12 18 - - 0.0
22/05:00pm 18.5 14.3 5.7 43 6.9 NNE 17 26 9 14 - - 0.0
22/04:30pm 19.8 15.8 6.5 42 7.3 NNE 17 20 9 11 - - 0.0
22/04:00pm 19.5 16.0 8.8 50 6.1 NNE 17 28 9 15 - - 0.0
22/03:30pm 19.3 16.1 5.0 39 7.6 N 11 24 6 13 - - 0.0
22/03:00pm 18.8 14.6 5.6 42 7.1 NNE 17 24 9 13 - - 0.0
22/02:30pm 18.8 14.2 6.6 45 6.7 N 20 28 11 15 - - 0.0
22/02:00pm 18.4 12.1 5.6 43 6.8 N 28 33 15 18 - - 0.0
22/01:30pm 19.4 14.0 6.5 43 7.0 NNE 24 37 13 20 - - 0.0
22/01:00pm 20.1 14.0 6.8 42 7.3 NNE 28 41 15 22 - - 0.0
22/12:30pm 19.4 13.3 6.5 43 7.0 N 28 44 15 24 - - 0.0
22/12:00pm 19.2 13.2 5.3 40 7.4 NNE 26 35 14 19 - - 0.0
22/11:30am 19.1 14.3 7.5 47 6.4 NNE 22 35 12 19 - - 0.0
22/11:00am 18.3 13.5 5.8 44 6.7 NNE 20 30 11 16 - - 0.0
22/10:30am 18.8 13.2 7.3 47 6.4 NNE 26 33 14 18 - - 0.0
22/10:00am 18.4 13.4 6.3 45 6.5 NNE 22 30 12 16 - - 0.0
22/09:30am 18.3 13.6 5.2 42 6.9 NNE 19 26 10 14 - - 0.0
22/09:00am 17.3 13.1 3.6 40 7.0 NNE 15 20 8 11 - - 0.0
22/08:30am 17.1 13.0 4.1 42 6.7 NE 15 22 8 12 - - -
22/08:00am 16.6 12.9 4.6 45 6.2 NNE 13 19 7 10 - - -
22/07:30am 15.9 11.9 3.0 42 6.4 NE 13 22 7 12 - - -
22/07:00am 15.3 12.5 3.1 44 6.1 N 7 11 4 6 - - -
22/06:30am 14.0 10.4 3.2 48 5.3 NNE 11 13 6 7 - - -
22/06:00am 14.0 11.0 2.3 45 5.7 NNE 7 9 4 5 - - -
22/05:30am 14.5 11.7 1.8 42 6.1 NNW 6 7 3 4 - - -
22/05:00am 14.4 11.4 1.7 42 6.1 NNW 7 9 4 5 - - -
22/04:30am 14.2 10.8 1.8 43 6.0 NNW 9 11 5 6 - - -
22/04:00am 13.6 9.8 1.9 45 5.6 N 11 13 6 7 - - 0.0
22/03:30am 13.6 9.2 2.5 47 5.4 N 15 17 8 9 - - 0.0
22/03:00am 14.2 9.9 3.4 48 5.4 NNE 15 19 8 10 - - 0.0
22/02:30am 13.7 9.1 3.5 50 5.1 NNE 17 20 9 11 - - 0.0
22/02:00am 14.5 9.4 3.0 46 5.7 N 19 24 10 13 - - 0.0
22/01:30am 14.1 9.5 3.6 49 5.2 N 17 24 9 13 - - 0.0
22/01:00am 14.3 9.8 4.0 50 5.2 NNE 17 22 9 12 - - 0.0
22/12:30am 14.0 9.5 4.3 52 4.9 NNE 17 22 9 12 - - 0.0
22/12:00am 13.7 9.2 4.0 52 4.9 N 17 20 9 11 - - 0.0
 
Date/Time
EDT
Temp
°C
App
Temp
°C
Dew
Point
Rel
Hum
%
Delta-T
°C
Wind Press
QNH
hPa
Press
MSL
hPa
Rain
since 9 am
mm
Dir
 
Spd
km/h
Gust
km/h
Spd
kts
Gust
kts
21/11:30pm 13.5 9.7 3.8 52 4.8 N 13 17 7 9 - - 0.0
21/11:00pm 13.8 10.7 3.6 50 5.1 NNW 9 13 5 7 - - 0.0
21/10:30pm 13.9 10.1 3.9 51 5.0 N 13 17 7 9 - - 0.0
21/10:00pm 13.7 10.7 4.3 53 4.7 N 9 13 5 7 - - 0.0
21/09:30pm 14.1 10.4 4.4 52 4.9 N 13 15 7 8 - - 0.0
21/09:00pm 14.1 11.4 3.8 50 5.2 N 7 9 4 5 - - 0.0
21/08:30pm 14.3 11.7 4.0 50 5.2 NNW 7 9 4 5 - - 0.0
21/08:00pm 15.0 12.8 3.2 45 5.9 NNW 4 6 2 3 - - 0.0
21/07:30pm 15.7 13.7 4.4 47 5.8 N 4 7 2 4 - - 0.0
21/07:00pm 16.2 13.5 3.9 44 6.3 NW 7 15 4 8 - - 0.0
21/06:30pm 16.3 12.8 3.7 43 6.4 NW 11 20 6 11 - - 0.0
21/06:00pm 18.0 14.8 4.9 42 6.9 WNW 11 32 6 17 - - 0.0
21/05:30pm 17.9 14.3 5.2 43 6.7 WNW 13 20 7 11 - - 0.0
21/05:00pm 17.9 13.8 4.5 41 7.0 NW 15 28 8 15 - - 0.0
21/04:30pm 18.3 16.3 7.1 48 6.1 NNW 7 15 4 8 - - 0.0
21/04:00pm 17.3 13.2 6.2 48 6.0 NNW 17 28 9 15 - - 0.0
21/03:30pm 17.1 14.2 8.0 55 5.0 WNW 13 26 7 14 - - 0.0
21/03:00pm 16.4 12.2 7.3 55 5.0 N 19 32 10 17 - - 0.0
21/02:30pm 15.7 12.6 5.6 51 5.3 NNW 11 28 6 15 - - 0.0
21/02:00pm 17.0 13.2 7.6 54 5.2 NNW 17 26 9 14 - - 0.0
21/01:30pm 16.1 12.5 6.8 54 5.0 NNW 15 28 8 15 - - 0.0
21/01:00pm 14.8 10.2 6.4 57 4.5 NNW 20 37 11 20 - - 0.0
21/12:30pm 16.8 13.6 8.5 58 4.6 NNW 15 32 8 17 - - 0.0
21/12:00pm 15.0 11.7 6.3 56 4.6 N 13 24 7 13 - - 0.0
21/11:30am 15.1 11.4 7.9 62 3.9 NNW 17 30 9 16 - - 0.0
21/11:00am 14.8 11.4 6.1 56 4.6 NNW 13 26 7 14 - - 0.0
21/10:30am 14.3 10.9 5.7 56 4.5 NNW 13 28 7 15 - - 0.0
21/10:00am 13.8 10.9 4.9 55 4.6 NNW 9 17 5 9 - - 0.0
21/09:30am 13.8 11.0 5.2 56 4.4 NW 9 19 5 10 - - 0.0
21/09:00am 13.6 10.0 5.0 56 4.4 WSW 13 17 7 9 - - 0.0
21/08:30am 13.3 10.5 5.2 58 4.2 W 9 17 5 9 - - 0.0
21/08:00am 12.5 8.7 4.0 56 4.2 WNW 13 22 7 12 - - 0.0
21/07:30am 11.9 7.2 3.4 56 4.2 WNW 17 24 9 13 - - 0.0
21/07:00am 11.4 6.9 2.4 54 4.3 WNW 15 24 8 13 - - 0.0
21/06:30am 9.9 5.3 3.6 65 3.1 NW 17 22 9 12 - - 0.0
21/06:00am 10.4 5.7 3.4 62 3.4 NW 17 22 9 12 - - 0.0
21/05:30am 9.7 4.6 3.0 63 3.2 NW 19 24 10 13 - - 0.0
21/05:00am 9.6 4.9 3.1 64 3.1 NW 17 20 9 11 - - 0.0
21/04:30am 9.2 4.5 3.4 67 2.8 NW 17 20 9 11 - - 0.0
21/04:00am 8.8 4.5 3.4 69 2.6 NW 15 17 8 9 - - 0.0
21/03:30am 9.1 5.2 3.3 67 2.8 NW 13 15 7 8 - - 0.0
21/03:00am 9.8 7.0 3.3 64 3.1 NW 7 9 4 5 - - 0.0
21/02:30am 10.0 7.4 3.3 63 3.2 NW 6 6 3 3 - - 0.0
21/02:00am 10.0 7.5 3.5 64 3.1 NW 6 7 3 4 - - 0.0
21/01:30am 10.1 7.3 3.2 62 3.3 WNW 7 9 4 5 - - 0.0
21/01:00am 9.7 6.9 3.0 63 3.2 WNW 7 9 4 5 - - 0.0
21/12:30am 9.7 6.8 2.8 62 3.3 WNW 7 9 4 5 - - 0.0
21/12:00am 11.1 8.7 2.4 55 4.1 W 4 6 2 3 - - 0.0
 
Date/Time
EDT
Temp
°C
App
Temp
°C
Dew
Point
Rel
Hum
%
Delta-T
°C
Wind Press
QNH
hPa
Press
MSL
hPa
Rain
since 9 am
mm
Dir
 
Spd
km/h
Gust
km/h
Spd
kts
Gust
kts
20/11:30pm 11.5 8.4 0.3 46 5.1 W 6 6 3 3 - - 0.0
20/11:00pm 10.8 8.7 1.4 52 4.4 WSW 2 4 1 2 - - 0.0
20/10:30pm 10.8 8.9 5.1 68 2.9 SSW 4 4 2 2 - - 0.0
20/10:00pm 10.1 8.0 5.7 74 2.2 SSW 6 7 3 4 - - 0.0
20/09:30pm 10.2 7.7 6.7 79 1.8 SSW 9 11 5 6 - - 0.0
20/09:00pm 10.6 7.9 5.4 70 2.6 SSW 9 13 5 7 - - 0.0
20/08:30pm 10.7 7.9 5.0 68 2.9 SW 9 15 5 8 - - 0.0
20/08:00pm 12.4 9.1 4.6 59 3.9 SW 11 17 6 9 - - 0.0
20/07:30pm 13.1 9.3 5.8 61 3.8 SW 15 24 8 13 - - 0.0
20/07:00pm 12.9 10.1 7.1 68 3.1 SW 11 15 6 8 - - 0.0
20/06:30pm 13.4 10.2 6.7 64 3.5 SW 13 20 7 11 - - 0.0
20/06:00pm 13.4 9.4 6.7 64 3.5 SSW 17 26 9 14 - - 0.0
20/05:30pm 14.4 10.8 6.7 60 4.1 SW 15 22 8 12 - - 0.0
20/05:00pm 14.4 11.1 6.5 59 4.2 SW 13 22 7 12 - - 0.0
20/04:30pm 14.3 10.6 6.4 59 4.2 WSW 15 26 8 14 - - 0.0
20/04:00pm 14.5 10.5 6.6 59 4.2 WSW 17 28 9 15 - - 0.0
20/03:30pm 13.4 9.3 4.6 55 4.5 SW 15 24 8 13 - - 0.0
20/03:00pm 13.8 9.6 5.7 58 4.2 WSW 17 24 9 13 - - 0.0
20/02:30pm 13.5 9.7 5.9 60 4.0 WSW 15 26 8 14 - - 0.0
20/02:00pm 13.8 10.4 5.7 58 4.2 WSW 13 20 7 11 - - 0.0
20/01:30pm 13.7 11.8 7.7 67 3.2 SW 7 15 4 8 - - 0.0
20/01:00pm 12.8 10.9 6.6 66 3.3 ENE 6 13 3 7 - - 0.0
20/12:30pm 12.1 10.1 6.2 67 3.1 NE 6 13 3 7 - - 0.0
20/12:00pm 12.0 9.8 6.1 67 3.1 NNW 7 19 4 10 - - 0.0

Other Formats:

Comma delimited format used in spreadsheet applications
http://www.bom.gov.au/fwo/IDV60801/IDV60801.94894.axf

JavaScript Object Notation format (JSON) in row-major order
http://www.bom.gov.au/fwo/IDV60801/IDV60801.94894.json